sensor_id;sensor_type;location;lat;lon;timestamp;pressure;altitude;pressure_sealevel;temperature;humidity
38163;BME280;23977;53.078;18.248;2023-06-10T00:01:02;101326.06;;;17.89;91.96
38163;BME280;23977;53.078;18.248;2023-06-10T00:03:49;101321.88;;;17.65;92.98
38163;BME280;23977;53.078;18.248;2023-06-10T00:06:15;101327.97;;;17.52;94.11
38163;BME280;23977;53.078;18.248;2023-06-10T00:08:41;101328.75;;;17.46;94.08
38163;BME280;23977;53.078;18.248;2023-06-10T00:11:06;101328.38;;;17.49;94.05
38163;BME280;23977;53.078;18.248;2023-06-10T00:13:32;101328.31;;;17.42;94.98
38163;BME280;23977;53.078;18.248;2023-06-10T00:15:57;101339.13;;;17.49;95.13
38163;BME280;23977;53.078;18.248;2023-06-10T00:18:23;101334.63;;;17.34;95.15
38163;BME280;23977;53.078;18.248;2023-06-10T00:20:48;101339.69;;;17.23;95.90
38163;BME280;23977;53.078;18.248;2023-06-10T00:23:18;101340.63;;;17.15;96.42
38163;BME280;23977;53.078;18.248;2023-06-10T00:25:43;101342.03;;;17.11;96.26
38163;BME280;23977;53.078;18.248;2023-06-10T00:28:09;101346.03;;;17.00;97.02
38163;BME280;23977;53.078;18.248;2023-06-10T00:30:35;101356.63;;;17.23;95.91
38163;BME280;23977;53.078;18.248;2023-06-10T00:33:00;101356.16;;;17.34;95.24
38163;BME280;23977;53.078;18.248;2023-06-10T00:35:26;101347.56;;;17.24;94.50
38163;BME280;23977;53.078;18.248;2023-06-10T00:37:54;101356.47;;;17.10;95.12
38163;BME280;23977;53.078;18.248;2023-06-10T00:40:19;101350.88;;;17.26;94.35
38163;BME280;23977;53.078;18.248;2023-06-10T00:42:47;101357.56;;;17.30;93.65
38163;BME280;23977;53.078;18.248;2023-06-10T00:45:13;101355.50;;;17.32;93.10
38163;BME280;23977;53.078;18.248;2023-06-10T00:47:39;101347.09;;;17.20;93.88
38163;BME280;23977;53.078;18.248;2023-06-10T00:50:05;101354.81;;;17.24;93.93
38163;BME280;23977;53.078;18.248;2023-06-10T00:52:31;101353.56;;;17.26;93.69
38163;BME280;23977;53.078;18.248;2023-06-10T00:54:56;101361.72;;;17.33;93.29
38163;BME280;23977;53.078;18.248;2023-06-10T00:57:22;101363.59;;;17.32;93.12
38163;BME280;23977;53.078;18.248;2023-06-10T00:59:48;101352.84;;;17.54;90.69
38163;BME280;23977;53.078;18.248;2023-06-10T01:02:14;101357.84;;;17.57;90.83
38163;BME280;23977;53.078;18.248;2023-06-10T01:04:39;101364.00;;;17.51;90.96
38163;BME280;23977;53.078;18.248;2023-06-10T01:07:17;101365.97;;;17.42;91.20
38163;BME280;23977;53.078;18.248;2023-06-10T01:12:21;101369.59;;;17.34;91.32
38163;BME280;23977;53.078;18.248;2023-06-10T01:14:49;101372.94;;;17.36;90.71
38163;BME280;23977;53.078;18.248;2023-06-10T01:17:16;101318.69;;;16.96;91.35
38163;BME280;23977;53.078;18.248;2023-06-10T01:19:43;101371.66;;;17.32;90.81
38163;BME280;23977;53.078;18.248;2023-06-10T01:22:09;101369.25;;;17.23;91.22
38163;BME280;23977;53.078;18.248;2023-06-10T01:24:38;101365.66;;;17.15;91.48
38163;BME280;23977;53.078;18.248;2023-06-10T01:27:07;101370.00;;;17.16;90.83
38163;BME280;23977;53.078;18.248;2023-06-10T01:29:45;101373.94;;;17.14;90.38
38163;BME280;23977;53.078;18.248;2023-06-10T01:32:13;101375.56;;;17.15;89.55
38163;BME280;23977;53.078;18.248;2023-06-10T01:34:42;101382.25;;;17.19;89.45
38163;BME280;23977;53.078;18.248;2023-06-10T01:37:07;101383.81;;;17.28;88.66
38163;BME280;23977;53.078;18.248;2023-06-10T01:39:34;101381.38;;;17.33;88.50
38163;BME280;23977;53.078;18.248;2023-06-10T01:42:00;101381.03;;;17.22;89.35
38163;BME280;23977;53.078;18.248;2023-06-10T01:44:27;101391.28;;;17.48;88.05
38163;BME280;23977;53.078;18.248;2023-06-10T01:46:53;101390.25;;;17.49;85.71
38163;BME280;23977;53.078;18.248;2023-06-10T01:49:18;101393.94;;;17.26;87.09
38163;BME280;23977;53.078;18.248;2023-06-10T01:51:47;101394.66;;;17.20;87.01
38163;BME280;23977;53.078;18.248;2023-06-10T01:54:12;101406.19;;;17.14;86.88
38163;BME280;23977;53.078;18.248;2023-06-10T01:56:38;101403.16;;;17.02;87.31
38163;BME280;23977;53.078;18.248;2023-06-10T01:59:04;101403.25;;;16.94;87.27
38163;BME280;23977;53.078;18.248;2023-06-10T02:01:29;101407.78;;;16.93;86.79
38163;BME280;23977;53.078;18.248;2023-06-10T02:03:56;101410.63;;;17.07;85.45
38163;BME280;23977;53.078;18.248;2023-06-10T02:06:22;101405.25;;;17.07;84.64
38163;BME280;23977;53.078;18.248;2023-06-10T02:08:48;101394.66;;;17.20;83.61
38163;BME280;23977;53.078;18.248;2023-06-10T02:11:14;101402.56;;;17.22;83.12
38163;BME280;23977;53.078;18.248;2023-06-10T02:13:41;101412.59;;;17.13;83.51
38163;BME280;23977;53.078;18.248;2023-06-10T02:16:15;101408.78;;;17.22;82.65
38163;BME280;23977;53.078;18.248;2023-06-10T02:18:42;101415.66;;;17.10;83.11
38163;BME280;23977;53.078;18.248;2023-06-10T02:21:08;101423.16;;;17.29;81.31
38163;BME280;23977;53.078;18.248;2023-06-10T02:23:33;101422.88;;;17.24;81.20
38163;BME280;23977;53.078;18.248;2023-06-10T02:25:59;101422.78;;;17.17;81.57
38163;BME280;23977;53.078;18.248;2023-06-10T02:28:25;101424.75;;;17.09;82.21
38163;BME280;23977;53.078;18.248;2023-06-10T02:30:51;101426.88;;;16.98;82.54
38163;BME280;23977;53.078;18.248;2023-06-10T02:33:17;101425.31;;;16.89;83.02
38163;BME280;23977;53.078;18.248;2023-06-10T02:35:43;101427.34;;;17.02;81.74
38163;BME280;23977;53.078;18.248;2023-06-10T02:38:09;101420.50;;;16.99;81.91
38163;BME280;23977;53.078;18.248;2023-06-10T02:40:38;101423.00;;;17.01;82.27
38163;BME280;23977;53.078;18.248;2023-06-10T02:43:04;101419.38;;;17.09;81.84
38163;BME280;23977;53.078;18.248;2023-06-10T02:45:30;101428.47;;;17.08;81.79
38163;BME280;23977;53.078;18.248;2023-06-10T02:47:55;101421.31;;;17.00;82.34
38163;BME280;23977;53.078;18.248;2023-06-10T02:50:22;101425.41;;;17.11;81.99
38163;BME280;23977;53.078;18.248;2023-06-10T02:52:48;101437.81;;;16.97;82.61
38163;BME280;23977;53.078;18.248;2023-06-10T02:55:16;101441.00;;;17.00;82.78
38163;BME280;23977;53.078;18.248;2023-06-10T02:57:42;101441.44;;;17.04;82.43
38163;BME280;23977;53.078;18.248;2023-06-10T03:00:11;101443.47;;;17.17;81.88
38163;BME280;23977;53.078;18.248;2023-06-10T03:02:37;101450.72;;;17.01;82.56
38163;BME280;23977;53.078;18.248;2023-06-10T03:05:04;101445.69;;;16.98;83.00
38163;BME280;23977;53.078;18.248;2023-06-10T03:07:30;101449.06;;;17.00;83.11
38163;BME280;23977;53.078;18.248;2023-06-10T03:09:57;101460.19;;;16.97;83.46
38163;BME280;23977;53.078;18.248;2023-06-10T03:12:22;101460.19;;;16.97;83.90
38163;BME280;23977;53.078;18.248;2023-06-10T03:14:48;101471.47;;;17.08;83.87
38163;BME280;23977;53.078;18.248;2023-06-10T03:17:13;101470.16;;;17.04;84.12
38163;BME280;23977;53.078;18.248;2023-06-10T03:19:39;101483.53;;;17.12;84.07
38163;BME280;23977;53.078;18.248;2023-06-10T03:22:11;101482.25;;;17.08;84.46
38163;BME280;23977;53.078;18.248;2023-06-10T03:24:37;101486.31;;;17.04;85.43
38163;BME280;23977;53.078;18.248;2023-06-10T03:27:06;101483.06;;;17.08;85.34
38163;BME280;23977;53.078;18.248;2023-06-10T03:29:32;101481.50;;;17.14;85.29
38163;BME280;23977;53.078;18.248;2023-06-10T03:31:57;101486.88;;;17.14;85.62
38163;BME280;23977;53.078;18.248;2023-06-10T03:34:24;101486.31;;;17.18;85.60
38163;BME280;23977;53.078;18.248;2023-06-10T03:36:51;101491.13;;;17.23;85.66
38163;BME280;23977;53.078;18.248;2023-06-10T03:39:17;101489.22;;;17.17;85.99
38163;BME280;23977;53.078;18.248;2023-06-10T03:41:43;101493.28;;;17.28;85.75
38163;BME280;23977;53.078;18.248;2023-06-10T03:44:08;101503.56;;;17.39;85.48
38163;BME280;23977;53.078;18.248;2023-06-10T03:46:34;101501.88;;;17.53;84.82
38163;BME280;23977;53.078;18.248;2023-06-10T03:48:59;101503.88;;;17.81;83.69
38163;BME280;23977;53.078;18.248;2023-06-10T03:51:29;101504.06;;;17.94;82.75
38163;BME280;23977;53.078;18.248;2023-06-10T03:53:54;101507.59;;;18.16;81.06
38163;BME280;23977;53.078;18.248;2023-06-10T03:56:20;101519.78;;;18.34;79.79
38163;BME280;23977;53.078;18.248;2023-06-10T03:58:50;101521.72;;;18.68;77.77
38163;BME280;23977;53.078;18.248;2023-06-10T04:01:15;101523.69;;;19.37;74.77
38163;BME280;23977;53.078;18.248;2023-06-10T04:03:43;101530.22;;;20.31;69.08
38163;BME280;23977;53.078;18.248;2023-06-10T04:06:09;101530.88;;;21.00;64.71
38163;BME280;23977;53.078;18.248;2023-06-10T04:08:34;101532.06;;;21.31;62.70
38163;BME280;23977;53.078;18.248;2023-06-10T04:11:01;101534.22;;;21.02;62.64
38163;BME280;23977;53.078;18.248;2023-06-10T04:13:27;101541.94;;;20.92;63.17
38163;BME280;23977;53.078;18.248;2023-06-10T04:15:53;101536.53;;;20.92;63.25
38163;BME280;23977;53.078;18.248;2023-06-10T04:18:20;101545.78;;;21.50;60.40
38163;BME280;23977;53.078;18.248;2023-06-10T04:20:46;101543.47;;;22.05;58.29
38163;BME280;23977;53.078;18.248;2023-06-10T04:23:12;101545.31;;;22.94;55.04
38163;BME280;23977;53.078;18.248;2023-06-10T04:25:38;101542.09;;;23.77;52.17
38163;BME280;23977;53.078;18.248;2023-06-10T04:28:03;101541.59;;;24.29;49.79
38163;BME280;23977;53.078;18.248;2023-06-10T04:30:29;101542.41;;;24.60;48.72
38163;BME280;23977;53.078;18.248;2023-06-10T04:32:56;101543.00;;;25.09;46.99
38163;BME280;23977;53.078;18.248;2023-06-10T04:35:22;101547.25;;;25.17;46.40
38163;BME280;23977;53.078;18.248;2023-06-10T04:37:47;101542.13;;;25.44;44.89
38163;BME280;23977;53.078;18.248;2023-06-10T04:40:14;101542.28;;;25.78;43.85
38163;BME280;23977;53.078;18.248;2023-06-10T04:42:41;101543.13;;;26.70;41.15
38163;BME280;23977;53.078;18.248;2023-06-10T04:45:07;101541.88;;;27.17;40.23
38163;BME280;23977;53.078;18.248;2023-06-10T04:47:33;101542.16;;;27.82;38.74
38163;BME280;23977;53.078;18.248;2023-06-10T04:49:59;101544.31;;;28.34;37.64
38163;BME280;23977;53.078;18.248;2023-06-10T04:52:31;101536.16;;;28.72;35.37
38163;BME280;23977;53.078;18.248;2023-06-10T04:55:02;101541.22;;;29.38;34.76
38163;BME280;23977;53.078;18.248;2023-06-10T04:57:33;101545.59;;;29.39;34.35
38163;BME280;23977;53.078;18.248;2023-06-10T05:02:40;101543.50;;;29.72;33.42
38163;BME280;23977;53.078;18.248;2023-06-10T05:05:07;101550.47;;;30.00;33.34
38163;BME280;23977;53.078;18.248;2023-06-10T05:07:48;101546.97;;;30.56;31.62
38163;BME280;23977;53.078;18.248;2023-06-10T05:10:15;101551.88;;;30.13;31.75
38163;BME280;23977;53.078;18.248;2023-06-10T05:12:43;101552.69;;;29.30;33.18
38163;BME280;23977;53.078;18.248;2023-06-10T05:15:13;101557.50;;;27.83;35.03
38163;BME280;23977;53.078;18.248;2023-06-10T05:17:40;101551.94;;;26.44;37.56
38163;BME280;23977;53.078;18.248;2023-06-10T05:20:15;101562.91;;;25.10;40.77
38163;BME280;23977;53.078;18.248;2023-06-10T05:22:41;101558.38;;;25.16;40.81
38163;BME280;23977;53.078;18.248;2023-06-10T05:25:07;101569.16;;;25.34;40.16
38163;BME280;23977;53.078;18.248;2023-06-10T05:27:35;101567.41;;;26.38;38.03
38163;BME280;23977;53.078;18.248;2023-06-10T05:30:07;101567.47;;;25.97;38.92
38163;BME280;23977;53.078;18.248;2023-06-10T05:32:33;101566.13;;;25.71;39.37
38163;BME280;23977;53.078;18.248;2023-06-10T05:34:59;101560.78;;;26.34;37.83
38163;BME280;23977;53.078;18.248;2023-06-10T05:37:26;101561.38;;;27.43;36.08
38163;BME280;23977;53.078;18.248;2023-06-10T05:43:00;101568.16;;;28.07;35.04
38163;BME280;23977;53.078;18.248;2023-06-10T05:45:27;101556.50;;;28.49;34.23
38163;BME280;23977;53.078;18.248;2023-06-10T05:47:52;101557.78;;;28.41;34.92
38163;BME280;23977;53.078;18.248;2023-06-10T05:50:18;101561.97;;;28.49;33.93
38163;BME280;23977;53.078;18.248;2023-06-10T05:52:44;101564.16;;;28.47;34.55
38163;BME280;23977;53.078;18.248;2023-06-10T05:55:09;101568.06;;;28.56;33.98
38163;BME280;23977;53.078;18.248;2023-06-10T05:57:44;101558.97;;;27.68;35.53
38163;BME280;23977;53.078;18.248;2023-06-10T06:00:11;101560.16;;;27.56;35.18
38163;BME280;23977;53.078;18.248;2023-06-10T06:02:37;101557.84;;;26.86;36.15
38163;BME280;23977;53.078;18.248;2023-06-10T06:05:07;101554.69;;;26.77;36.57
38163;BME280;23977;53.078;18.248;2023-06-10T06:07:32;101549.91;;;28.17;34.34
38163;BME280;23977;53.078;18.248;2023-06-10T06:10:00;101559.78;;;27.69;35.30
38163;BME280;23977;53.078;18.248;2023-06-10T06:12:30;101562.25;;;27.71;35.02
38163;BME280;23977;53.078;18.248;2023-06-10T06:14:56;101557.34;;;30.08;32.43
38163;BME280;23977;53.078;18.248;2023-06-10T06:17:23;101558.31;;;33.47;27.41
38163;BME280;23977;53.078;18.248;2023-06-10T06:19:48;101541.88;;;35.62;24.88
38163;BME280;23977;53.078;18.248;2023-06-10T06:22:15;101546.31;;;37.08;23.64
38163;BME280;23977;53.078;18.248;2023-06-10T06:24:45;101550.22;;;37.73;22.31
38163;BME280;23977;53.078;18.248;2023-06-10T06:27:13;101542.53;;;38.05;21.64
38163;BME280;23977;53.078;18.248;2023-06-10T06:29:41;101546.59;;;36.66;22.86
38163;BME280;23977;53.078;18.248;2023-06-10T06:32:08;101544.50;;;35.45;24.00
38163;BME280;23977;53.078;18.248;2023-06-10T06:34:36;101545.19;;;35.64;24.11
38163;BME280;23977;53.078;18.248;2023-06-10T06:37:01;101549.69;;;35.74;23.52
38163;BME280;23977;53.078;18.248;2023-06-10T06:39:31;101562.25;;;33.84;25.76
38163;BME280;23977;53.078;18.248;2023-06-10T06:41:58;101549.28;;;32.64;26.93
38163;BME280;23977;53.078;18.248;2023-06-10T06:44:25;101557.50;;;33.47;26.48
38163;BME280;23977;53.078;18.248;2023-06-10T06:46:56;101557.19;;;35.46;24.30
38163;BME280;23977;53.078;18.248;2023-06-10T06:49:23;101556.22;;;36.37;22.70
38163;BME280;23977;53.078;18.248;2023-06-10T06:51:49;101558.78;;;35.24;23.81
38163;BME280;23977;53.078;18.248;2023-06-10T06:54:16;101565.81;;;34.04;25.21
38163;BME280;23977;53.078;18.248;2023-06-10T06:56:51;101574.59;;;31.92;28.20
38163;BME280;23977;53.078;18.248;2023-06-10T06:59:18;101572.16;;;30.02;30.65
38163;BME280;23977;53.078;18.248;2023-06-10T07:01:48;101578.81;;;30.47;30.95
38163;BME280;23977;53.078;18.248;2023-06-10T07:04:17;101578.38;;;31.46;29.23
38163;BME280;23977;53.078;18.248;2023-06-10T07:06:50;101577.88;;;32.39;27.60
38163;BME280;23977;53.078;18.248;2023-06-10T07:09:21;101573.00;;;34.71;24.89
38163;BME280;23977;53.078;18.248;2023-06-10T07:11:49;101576.38;;;35.42;23.72
38163;BME280;23977;53.078;18.248;2023-06-10T07:14:16;101579.53;;;32.74;26.68
38163;BME280;23977;53.078;18.248;2023-06-10T07:16:41;101581.63;;;32.14;27.34
38163;BME280;23977;53.078;18.248;2023-06-10T07:19:15;101581.59;;;33.41;26.22
38163;BME280;23977;53.078;18.248;2023-06-10T07:21:41;101566.94;;;35.15;24.17
38163;BME280;23977;53.078;18.248;2023-06-10T07:24:10;101582.78;;;36.92;22.29
38163;BME280;23977;53.078;18.248;2023-06-10T07:26:35;101586.16;;;38.30;21.16
38163;BME280;23977;53.078;18.248;2023-06-10T07:29:01;101577.59;;;39.90;19.52
38163;BME280;23977;53.078;18.248;2023-06-10T07:31:26;101576.78;;;41.39;18.39
38163;BME280;23977;53.078;18.248;2023-06-10T07:33:52;101570.41;;;41.67;17.92
38163;BME280;23977;53.078;18.248;2023-06-10T07:36:17;101580.72;;;41.13;17.61
38163;BME280;23977;53.078;18.248;2023-06-10T07:38:43;101589.03;;;40.30;18.39
38163;BME280;23977;53.078;18.248;2023-06-10T07:41:09;101581.63;;;40.01;19.08
38163;BME280;23977;53.078;18.248;2023-06-10T07:43:35;101573.34;;;40.72;18.47
38163;BME280;23977;53.078;18.248;2023-06-10T07:46:00;101577.19;;;41.66;17.55
38163;BME280;23977;53.078;18.248;2023-06-10T07:48:26;101587.41;;;42.14;16.88
38163;BME280;23977;53.078;18.248;2023-06-10T07:50:52;101578.13;;;42.26;16.79
38163;BME280;23977;53.078;18.248;2023-06-10T07:53:17;101580.25;;;42.93;16.58
38163;BME280;23977;53.078;18.248;2023-06-10T07:55:43;101580.47;;;42.53;17.03
38163;BME280;23977;53.078;18.248;2023-06-10T07:58:09;101572.66;;;43.61;15.79
38163;BME280;23977;53.078;18.248;2023-06-10T08:00:35;101589.59;;;42.65;16.46
38163;BME280;23977;53.078;18.248;2023-06-10T08:03:00;101583.13;;;44.03;15.68
38163;BME280;23977;53.078;18.248;2023-06-10T08:05:26;101582.13;;;45.31;14.87
38163;BME280;23977;53.078;18.248;2023-06-10T08:07:52;101582.81;;;47.04;13.38
38163;BME280;23977;53.078;18.248;2023-06-10T08:10:17;101583.53;;;46.46;13.50
38163;BME280;23977;53.078;18.248;2023-06-10T08:12:43;101575.56;;;47.03;13.52
38163;BME280;23977;53.078;18.248;2023-06-10T08:15:08;101583.47;;;47.50;13.03
38163;BME280;23977;53.078;18.248;2023-06-10T08:17:34;101581.84;;;45.36;14.04
38163;BME280;23977;53.078;18.248;2023-06-10T08:20:00;101586.66;;;46.37;13.57
38163;BME280;23977;53.078;18.248;2023-06-10T08:22:26;101582.13;;;46.25;13.80
38163;BME280;23977;53.078;18.248;2023-06-10T08:24:51;101583.94;;;46.89;13.37
38163;BME280;23977;53.078;18.248;2023-06-10T08:27:17;101589.84;;;47.32;12.79
38163;BME280;23977;53.078;18.248;2023-06-10T08:29:42;101584.88;;;46.59;12.99
38163;BME280;23977;53.078;18.248;2023-06-10T08:32:08;101596.44;;;45.75;13.83
38163;BME280;23977;53.078;18.248;2023-06-10T08:34:34;101583.75;;;45.32;13.88
38163;BME280;23977;53.078;18.248;2023-06-10T08:37:01;101585.50;;;45.40;13.97
38163;BME280;23977;53.078;18.248;2023-06-10T08:39:26;101593.47;;;45.68;13.92
38163;BME280;23977;53.078;18.248;2023-06-10T08:42:00;101588.53;;;46.22;13.56
38163;BME280;23977;53.078;18.248;2023-06-10T08:44:29;101592.13;;;47.12;13.33
38163;BME280;23977;53.078;18.248;2023-06-10T08:46:56;101592.78;;;46.46;13.61
38163;BME280;23977;53.078;18.248;2023-06-10T08:49:23;101598.97;;;46.63;13.29
38163;BME280;23977;53.078;18.248;2023-06-10T08:51:51;101603.28;;;46.12;13.58
38163;BME280;23977;53.078;18.248;2023-06-10T08:54:20;101596.34;;;44.65;14.78
38163;BME280;23977;53.078;18.248;2023-06-10T08:56:48;101590.69;;;45.11;14.14
38163;BME280;23977;53.078;18.248;2023-06-10T08:59:14;101602.25;;;45.93;13.78
38163;BME280;23977;53.078;18.248;2023-06-10T09:01:42;101599.31;;;45.52;13.99
38163;BME280;23977;53.078;18.248;2023-06-10T09:04:08;101603.56;;;45.12;14.21
38163;BME280;23977;53.078;18.248;2023-06-10T09:06:33;101584.47;;;44.29;14.88
38163;BME280;23977;53.078;18.248;2023-06-10T09:08:59;101597.50;;;44.41;14.79
38163;BME280;23977;53.078;18.248;2023-06-10T09:11:25;101594.06;;;43.18;15.16
38163;BME280;23977;53.078;18.248;2023-06-10T09:13:52;101596.38;;;43.48;15.11
38163;BME280;23977;53.078;18.248;2023-06-10T09:16:17;101600.31;;;42.79;15.51
38163;BME280;23977;53.078;18.248;2023-06-10T09:18:43;101598.59;;;41.61;16.50
38163;BME280;23977;53.078;18.248;2023-06-10T09:21:09;101593.56;;;42.96;15.81
38163;BME280;23977;53.078;18.248;2023-06-10T09:23:34;101604.91;;;43.19;15.55
38163;BME280;23977;53.078;18.248;2023-06-10T09:26:00;101596.53;;;41.21;16.85
38163;BME280;23977;53.078;18.248;2023-06-10T09:28:26;101603.25;;;41.70;16.73
38163;BME280;23977;53.078;18.248;2023-06-10T09:31:01;101595.91;;;42.62;16.30
38163;BME280;23977;53.078;18.248;2023-06-10T09:33:27;101596.63;;;42.59;16.17
38163;BME280;23977;53.078;18.248;2023-06-10T09:35:53;101590.56;;;41.60;16.78
38163;BME280;23977;53.078;18.248;2023-06-10T09:38:21;101588.41;;;40.92;17.46
38163;BME280;23977;53.078;18.248;2023-06-10T09:40:51;101586.03;;;42.68;15.97
38163;BME280;23977;53.078;18.248;2023-06-10T09:43:16;101582.66;;;42.47;16.72
38163;BME280;23977;53.078;18.248;2023-06-10T09:45:42;101581.81;;;42.14;16.74
38163;BME280;23977;53.078;18.248;2023-06-10T09:48:08;101582.22;;;42.01;16.52
38163;BME280;23977;53.078;18.248;2023-06-10T09:50:34;101582.22;;;40.07;18.17
38163;BME280;23977;53.078;18.248;2023-06-10T09:53:00;101581.19;;;41.15;17.56
38163;BME280;23977;53.078;18.248;2023-06-10T09:55:28;101586.78;;;40.11;17.58
38163;BME280;23977;53.078;18.248;2023-06-10T09:57:53;101580.78;;;39.29;18.53
38163;BME280;23977;53.078;18.248;2023-06-10T10:00:19;101592.97;;;39.15;17.75
38163;BME280;23977;53.078;18.248;2023-06-10T10:02:53;101587.63;;;38.37;18.44
38163;BME280;23977;53.078;18.248;2023-06-10T10:05:20;101583.19;;;38.71;18.32
38163;BME280;23977;53.078;18.248;2023-06-10T10:07:47;101597.56;;;36.25;20.07
38163;BME280;23977;53.078;18.248;2023-06-10T10:10:16;101600.50;;;35.28;20.54
38163;BME280;23977;53.078;18.248;2023-06-10T10:12:42;101596.72;;;33.19;22.08
38163;BME280;23977;53.078;18.248;2023-06-10T10:15:09;101592.56;;;30.73;24.46
38163;BME280;23977;53.078;18.248;2023-06-10T10:17:39;101601.63;;;29.59;25.65
38163;BME280;23977;53.078;18.248;2023-06-10T10:20:08;101597.75;;;28.69;27.79
38163;BME280;23977;53.078;18.248;2023-06-10T10:22:36;101591.69;;;28.35;28.23
38163;BME280;23977;53.078;18.248;2023-06-10T10:25:02;101591.81;;;28.18;28.43
38163;BME280;23977;53.078;18.248;2023-06-10T10:27:36;101598.78;;;28.03;29.68
38163;BME280;23977;53.078;18.248;2023-06-10T10:30:06;101595.84;;;27.88;29.50
38163;BME280;23977;53.078;18.248;2023-06-10T10:32:58;101585.34;;;27.80;29.10
38163;BME280;23977;53.078;18.248;2023-06-10T10:35:25;101586.72;;;27.82;28.49
38163;BME280;23977;53.078;18.248;2023-06-10T10:37:59;101594.88;;;27.77;29.19
38163;BME280;23977;53.078;18.248;2023-06-10T10:40:27;101587.81;;;27.59;30.21
38163;BME280;23977;53.078;18.248;2023-06-10T10:42:56;101592.88;;;27.28;29.50
38163;BME280;23977;53.078;18.248;2023-06-10T10:45:27;101590.25;;;27.34;29.20
38163;BME280;23977;53.078;18.248;2023-06-10T10:47:54;101595.59;;;27.28;29.47
38163;BME280;23977;53.078;18.248;2023-06-10T10:50:22;101587.19;;;27.13;29.73
38163;BME280;23977;53.078;18.248;2023-06-10T10:55:20;101589.94;;;27.13;29.56
38163;BME280;23977;53.078;18.248;2023-06-10T10:57:53;101586.78;;;27.21;29.01
38163;BME280;23977;53.078;18.248;2023-06-10T11:00:28;101579.56;;;27.15;29.65
38163;BME280;23977;53.078;18.248;2023-06-10T11:03:03;101593.72;;;27.12;29.03
38163;BME280;23977;53.078;18.248;2023-06-10T11:05:37;101576.84;;;27.15;28.86
38163;BME280;23977;53.078;18.248;2023-06-10T11:08:10;101588.13;;;27.02;29.55
38163;BME280;23977;53.078;18.248;2023-06-10T11:10:37;101579.50;;;26.76;29.17
38163;BME280;23977;53.078;18.248;2023-06-10T11:13:08;101579.81;;;26.63;29.40
38163;BME280;23977;53.078;18.248;2023-06-10T11:15:38;101594.41;;;26.51;29.52
38163;BME280;23977;53.078;18.248;2023-06-10T11:18:23;101584.22;;;26.47;29.22
38163;BME280;23977;53.078;18.248;2023-06-10T11:20:52;101581.31;;;26.53;29.08
38163;BME280;23977;53.078;18.248;2023-06-10T11:23:33;101584.88;;;26.54;28.42
38163;BME280;23977;53.078;18.248;2023-06-10T11:29:00;101576.66;;;26.37;27.99
38163;BME280;23977;53.078;18.248;2023-06-10T11:31:28;101590.53;;;26.64;28.64
38163;BME280;23977;53.078;18.248;2023-06-10T11:33:55;101585.09;;;26.52;28.00
38163;BME280;23977;53.078;18.248;2023-06-10T11:36:26;101578.50;;;26.48;28.25
38163;BME280;23977;53.078;18.248;2023-06-10T11:39:03;101584.47;;;26.62;28.45
38163;BME280;23977;53.078;18.248;2023-06-10T11:41:30;101579.91;;;26.51;27.43
38163;BME280;23977;53.078;18.248;2023-06-10T11:44:13;101581.16;;;26.43;27.01
38163;BME280;23977;53.078;18.248;2023-06-10T11:46:39;101580.09;;;26.15;26.33
38163;BME280;23977;53.078;18.248;2023-06-10T11:49:06;101574.97;;;26.19;27.13
38163;BME280;23977;53.078;18.248;2023-06-10T11:51:33;101579.22;;;25.98;26.92
38163;BME280;23977;53.078;18.248;2023-06-10T11:53:59;101580.97;;;26.04;26.02
38163;BME280;23977;53.078;18.248;2023-06-10T11:56:26;101577.75;;;26.07;26.76
38163;BME280;23977;53.078;18.248;2023-06-10T11:58:53;101583.69;;;26.04;26.68
38163;BME280;23977;53.078;18.248;2023-06-10T12:01:21;101580.00;;;26.10;27.66
38163;BME280;23977;53.078;18.248;2023-06-10T12:04:05;101582.75;;;26.10;25.66
38163;BME280;23977;53.078;18.248;2023-06-10T12:07:05;101577.13;;;26.17;26.34
38163;BME280;23977;53.078;18.248;2023-06-10T12:09:27;101575.28;;;26.06;26.59
38163;BME280;23977;53.078;18.248;2023-06-10T12:17:09;101576.34;;;26.04;25.50
38163;BME280;23977;53.078;18.248;2023-06-10T12:19:39;101588.63;;;25.78;25.67
38163;BME280;23977;53.078;18.248;2023-06-10T12:22:05;101580.81;;;25.82;25.35
38163;BME280;23977;53.078;18.248;2023-06-10T12:24:31;101569.34;;;25.68;25.66
38163;BME280;23977;53.078;18.248;2023-06-10T12:27:11;101575.09;;;25.83;24.91
38163;BME280;23977;53.078;18.248;2023-06-10T12:29:37;101567.38;;;26.21;25.21
38163;BME280;23977;53.078;18.248;2023-06-10T12:32:06;101572.00;;;26.20;22.66
38163;BME280;23977;53.078;18.248;2023-06-10T12:37:02;101584.09;;;25.96;22.36
38163;BME280;23977;53.078;18.248;2023-06-10T12:39:30;101583.09;;;25.73;21.77
38163;BME280;23977;53.078;18.248;2023-06-10T12:41:59;101600.59;;;25.77;21.40
38163;BME280;23977;53.078;18.248;2023-06-10T12:44:30;101578.78;;;25.77;22.25
38163;BME280;23977;53.078;18.248;2023-06-10T12:46:56;101565.69;;;25.62;22.72
38163;BME280;23977;53.078;18.248;2023-06-10T12:49:26;101578.97;;;25.59;22.88
38163;BME280;23977;53.078;18.248;2023-06-10T12:51:53;101582.50;;;25.59;21.68
38163;BME280;23977;53.078;18.248;2023-06-10T12:54:24;101566.50;;;25.63;23.32
38163;BME280;23977;53.078;18.248;2023-06-10T12:56:50;101556.88;;;25.72;24.95
38163;BME280;23977;53.078;18.248;2023-06-10T12:59:18;101567.78;;;25.72;26.07
38163;BME280;23977;53.078;18.248;2023-06-10T13:01:49;101565.75;;;25.79;26.68
38163;BME280;23977;53.078;18.248;2023-06-10T13:04:20;101552.72;;;25.81;26.90